Time,TemperatureF,DewpointF,PressureIn,WindDirection,WindDirectionDegrees,WindSpeedMPH,WindSpeedGustMPH,Humidity,HourlyPrecipIn,Conditions,Clouds,dailyrainin,SoftwareType,DateUTC
2013-10-13 00:22:00,28.0,26.0,-100.00,ESE,118,3.0,5.0,91,0.00,,,-99.99,,2013-10-13 06:22:00,
2013-10-13 00:52:00,28.0,27.0,-100.00,ESE,123,4.0,6.0,94,0.00,,,-99.99,,2013-10-13 06:52:00,
2013-10-13 01:21:00,29.0,27.0,-100.00,ESE,119,4.0,7.0,94,0.00,,,-99.99,,2013-10-13 07:21:00,
2013-10-13 01:52:00,28.0,26.0,-100.00,ESE,122,5.0,7.0,92,0.00,,,-99.99,,2013-10-13 07:52:00,
2013-10-13 02:22:00,28.0,26.0,-100.00,ESE,115,5.0,6.0,91,0.00,,,-99.99,,2013-10-13 08:22:00,
2013-10-13 02:52:00,29.0,27.0,-100.00,ESE,120,5.0,7.0,91,0.00,,,-99.99,,2013-10-13 08:52:00,
2013-10-13 03:22:00,28.0,25.0,-100.00,SE,124,5.0,8.0,90,0.00,,,-99.99,,2013-10-13 09:22:00,
2013-10-13 03:53:00,27.0,24.0,-100.00,ESE,117,5.0,7.0,87,0.00,,,-99.99,,2013-10-13 09:53:00,
2013-10-13 04:23:00,28.0,25.0,-100.00,ESE,119,4.0,6.0,87,0.00,,,-99.99,,2013-10-13 10:23:00,
2013-10-13 04:53:00,28.0,25.0,-100.00,ESE,123,4.0,6.0,87,0.00,,,-99.99,,2013-10-13 10:53:00,
2013-10-13 05:22:00,29.0,26.0,-100.00,SE,126,6.0,8.0,89,0.00,,,-99.99,,2013-10-13 11:22:00,
2013-10-13 05:52:00,27.0,23.0,-100.00,SE,132,4.0,5.0,85,0.00,,,-99.99,,2013-10-13 11:52:00,
2013-10-13 06:21:00,28.0,25.0,-100.00,ESE,120,5.0,7.0,88,0.00,,,-99.99,,2013-10-13 12:21:00,
2013-10-13 06:52:00,28.0,25.0,-100.00,ESE,117,5.0,7.0,87,0.00,,,-99.99,,2013-10-13 12:52:00,
2013-10-13 07:22:00,28.0,25.0,-100.00,ESE,118,6.0,8.0,89,0.00,,,-99.99,,2013-10-13 13:22:00,
2013-10-13 07:52:00,29.0,26.0,-100.00,ESE,118,6.0,8.0,90,0.00,,,-99.99,,2013-10-13 13:52:00,
2013-10-13 08:21:00,33.0,29.0,-100.00,ESE,120,4.0,7.0,86,0.00,,,-99.99,,2013-10-13 14:21:00,
2013-10-13 08:52:00,38.0,31.0,-100.00,SE,128,4.0,6.0,75,0.00,,,-99.99,,2013-10-13 14:52:00,
2013-10-13 10:54:00,56.0,34.0,-100.00,SSE,155,5.0,7.0,43,0.00,,,-99.99,,2013-10-13 16:54:00,
2013-10-13 12:22:00,60.0,34.0,-100.00,SSE,158,8.0,12.0,37,0.00,,,-99.99,,2013-10-13 18:22:00,
2013-10-13 16:53:00,55.0,29.0,-100.00,SSW,192,4.0,8.0,37,0.00,,,-99.99,,2013-10-13 22:53:00,
2013-10-13 17:22:00,54.0,29.0,-100.00,SSW,207,1.0,3.0,38,0.00,,,-99.99,,2013-10-13 23:22:00,
2013-10-13 18:21:00,52.0,30.0,-100.00,SSW,210,4.0,6.0,42,0.00,,,-99.99,,2013-10-14 00:21:00,
2013-10-13 18:52:00,48.0,27.0,-100.00,SE,140,4.0,7.0,44,0.00,,,-99.99,,2013-10-14 00:52:00,
2013-10-13 19:21:00,48.0,30.0,-100.00,SE,139,3.0,4.0,50,0.00,,,-99.99,,2013-10-14 01:21:00,
2013-10-13 19:52:00,45.0,30.0,-100.00,SE,139,2.0,4.0,56,0.00,,,-99.99,,2013-10-14 01:52:00,
2013-10-13 20:22:00,47.0,32.0,-100.00,South,169,5.0,9.0,56,0.00,,,-99.99,,2013-10-14 02:22:00,
2013-10-13 20:52:00,46.0,32.0,-100.00,SW,232,4.0,7.0,58,0.00,,,-99.99,,2013-10-14 02:52:00,
2013-10-13 21:22:00,42.0,34.0,-100.00,West,261,6.0,9.0,73,0.00,,,-99.99,,2013-10-14 03:22:00,
2013-10-13 21:55:00,40.0,37.0,-100.00,SSE,159,3.0,4.0,88,0.00,,,-99.99,,2013-10-14 03:55:00,
2013-10-13 22:14:00,40.0,37.0,-100.00,SSW,205,1.0,3.0,88,0.00,,,-99.99,,2013-10-14 04:14:00,
2013-10-13 22:24:00,39.0,36.0,-100.00,ESE,112,1.0,3.0,88,0.00,,,-99.99,,2013-10-14 04:24:00,
2013-10-13 22:43:00,38.0,36.0,-100.00,ESE,113,4.0,7.0,93,0.00,,,-99.99,,2013-10-14 04:43:00,
2013-10-13 22:54:00,37.0,35.0,-100.00,SE,127,2.0,5.0,94,0.00,,,-99.99,,2013-10-14 04:54:00,
2013-10-13 23:23:00,37.0,36.0,-100.00,ESE,121,5.0,6.0,97,0.00,,,-99.99,,2013-10-14 05:23:00,
2013-10-13 23:52:00,35.0,34.0,-100.00,ESE,115,1.0,2.0,97,0.00,,,-99.99,,2013-10-14 05:52:00,